createdAt,value
2019-01-16T00:01:43.072Z,42.12
2019-01-16T00:04:09.051Z,42.13
2019-01-16T00:06:35.055Z,41.75
2019-01-16T00:09:01.104Z,41.71
2019-01-16T00:11:27.098Z,41.67
2019-01-16T00:13:53.097Z,41.80
2019-01-16T00:16:19.153Z,41.59
2019-01-16T00:18:45.151Z,41.68
2019-01-16T00:21:11.158Z,41.83
2019-01-16T00:23:37.213Z,41.75
2019-01-16T00:26:03.204Z,41.71
2019-01-16T00:28:29.199Z,41.66
2019-01-16T00:30:55.250Z,41.44
2019-01-16T00:33:21.310Z,41.71
2019-01-16T00:35:47.251Z,41.38
2019-01-16T00:38:13.293Z,41.63
2019-01-16T00:40:39.287Z,41.57
2019-01-16T00:43:05.271Z,41.58
2019-01-16T00:45:31.296Z,41.50
2019-01-16T00:47:57.282Z,41.67
2019-01-16T00:50:23.273Z,41.53
2019-01-16T00:52:49.316Z,41.54
2019-01-16T00:55:15.320Z,41.57
2019-01-16T00:57:41.308Z,41.48
2019-01-16T01:00:07.349Z,41.54
2019-01-16T01:02:33.410Z,41.61
2019-01-16T01:04:59.398Z,41.62
2019-01-16T01:07:25.432Z,41.36
2019-01-16T01:09:51.428Z,41.58
2019-01-16T01:12:17.422Z,41.62
2019-01-16T01:14:43.470Z,41.48
2019-01-16T01:17:09.472Z,41.21
2019-01-16T01:19:35.468Z,41.33
2019-01-16T01:22:01.512Z,41.41
2019-01-16T01:24:27.500Z,41.17
2019-01-16T01:26:53.483Z,41.34
2019-01-16T01:29:19.523Z,41.46
2019-01-16T01:31:45.527Z,41.50
2019-01-16T01:34:11.518Z,41.52
2019-01-16T01:36:37.563Z,41.25
2019-01-16T01:39:03.546Z,41.70
2019-01-16T01:41:29.547Z,41.54
2019-01-16T01:43:55.584Z,41.71
2019-01-16T01:46:21.577Z,41.55
2019-01-16T01:48:47.574Z,41.70
2019-01-16T01:51:13.615Z,41.71
2019-01-16T01:53:39.598Z,41.56
2019-01-16T01:56:05.593Z,41.78
2019-01-16T01:58:31.630Z,41.85
2019-01-16T02:00:57.617Z,41.90
2019-01-16T02:03:23.623Z,41.83
2019-01-16T02:05:49.680Z,41.89
2019-01-16T02:08:15.669Z,41.97
2019-01-16T02:10:41.668Z,41.87
2019-01-16T02:13:07.709Z,41.94
2019-01-16T02:15:33.752Z,42.03
2019-01-16T02:17:59.743Z,41.83
2019-01-16T02:20:25.877Z,41.99
2019-01-16T02:22:51.843Z,42.04
2019-01-16T02:25:17.824Z,42.13
2019-01-16T02:27:43.855Z,41.92
2019-01-16T02:30:09.849Z,42.03
2019-01-16T02:32:35.827Z,42.02
2019-01-16T02:35:01.877Z,42.07
2019-01-16T02:37:27.867Z,42.13
2019-01-16T02:39:53.864Z,42.10
2019-01-16T02:42:19.918Z,41.99
2019-01-16T02:44:46.043Z,42.12
2019-01-16T02:47:12.028Z,42.22
2019-01-16T02:49:38.078Z,42.09
2019-01-16T02:52:04.068Z,42.16
2019-01-16T02:54:30.047Z,42.18
2019-01-16T02:56:56.102Z,42.09
2019-01-16T02:59:22.081Z,42.19
2019-01-16T03:01:48.087Z,42.33
2019-01-16T03:04:14.125Z,42.30
2019-01-16T03:06:40.106Z,42.28
2019-01-16T03:09:06.091Z,42.20
2019-01-16T03:11:32.143Z,42.30
2019-01-16T03:13:58.147Z,42.21
2019-01-16T03:16:24.138Z,42.22
2019-01-16T03:18:50.177Z,42.28
2019-01-16T03:21:16.187Z,42.27
2019-01-16T03:23:42.189Z,42.40
2019-01-16T03:26:08.227Z,42.21
2019-01-16T03:28:34.229Z,42.18
2019-01-16T03:31:00.216Z,42.24
2019-01-16T03:33:26.244Z,42.20
2019-01-16T03:35:52.227Z,42.32
2019-01-16T03:38:18.254Z,42.34
2019-01-16T03:40:44.306Z,42.20
2019-01-16T03:43:10.298Z,42.32
2019-01-16T03:45:36.315Z,42.23
2019-01-16T03:48:02.338Z,42.31
2019-01-16T03:50:28.335Z,42.33
2019-01-16T03:52:54.337Z,42.37
2019-01-16T03:55:20.364Z,42.41
2019-01-16T03:57:46.355Z,42.39
2019-01-16T04:00:12.353Z,42.33
2019-01-16T04:02:38.412Z,42.41
2019-01-16T04:05:04.397Z,42.37
2019-01-16T04:07:30.410Z,42.43
2019-01-16T04:09:56.443Z,42.38
2019-01-16T04:12:22.438Z,42.45
2019-01-16T04:14:48.409Z,42.42
2019-01-16T04:17:14.461Z,42.51
2019-01-16T04:19:40.455Z,42.46
2019-01-16T04:22:06.438Z,42.42
2019-01-16T04:24:32.491Z,42.33
2019-01-16T04:26:58.535Z,42.28
2019-01-16T04:29:24.473Z,42.44
2019-01-16T04:31:50.509Z,42.47
2019-01-16T04:34:16.497Z,42.51
2019-01-16T04:36:42.485Z,42.46
2019-01-16T04:39:08.786Z,42.58
2019-01-16T04:41:34.764Z,42.33
2019-01-16T04:44:00.755Z,42.40
2019-01-16T04:46:26.803Z,42.45
2019-01-16T04:48:52.794Z,42.47
2019-01-16T04:51:18.784Z,42.52
2019-01-16T04:53:44.935Z,42.31
2019-01-16T04:56:11.061Z,42.51
2019-01-16T04:58:37.065Z,42.29
2019-01-16T05:01:03.067Z,42.16
2019-01-16T05:03:29.072Z,41.90
2019-01-16T05:05:55.061Z,41.89
2019-01-16T05:08:21.105Z,41.97
2019-01-16T05:10:47.112Z,40.99
2019-01-16T05:13:13.129Z,41.61
2019-01-16T05:15:39.178Z,41.57
2019-01-16T05:18:05.160Z,41.25
2019-01-16T05:20:31.166Z,41.47
2019-01-16T05:22:57.199Z,41.47
2019-01-16T05:25:23.200Z,41.30
2019-01-16T05:27:49.190Z,41.35
2019-01-16T05:30:15.242Z,41.35
2019-01-16T05:32:41.254Z,41.30
2019-01-16T05:35:07.272Z,41.38
2019-01-16T05:37:33.319Z,41.29
2019-01-16T05:39:59.309Z,41.33
2019-01-16T05:42:25.296Z,41.33
2019-01-16T05:44:51.333Z,41.31
2019-01-16T05:47:17.338Z,41.02
2019-01-16T05:49:46.769Z,41.19
2019-01-16T05:52:09.372Z,41.57
2019-01-16T05:54:35.414Z,41.40
2019-01-16T05:57:01.422Z,41.43
2019-01-16T05:59:27.485Z,41.69
2019-01-16T06:01:53.461Z,41.96
2019-01-16T06:04:19.461Z,42.16
2019-01-16T06:06:45.524Z,42.28
2019-01-16T06:09:11.529Z,42.52
2019-01-16T06:11:37.558Z,42.71
2019-01-16T06:14:03.628Z,43.02
2019-01-16T06:16:29.617Z,43.14
2019-01-16T06:18:55.615Z,43.23
2019-01-16T06:21:21.679Z,43.24
2019-01-16T06:23:47.666Z,43.19
2019-01-16T06:26:13.763Z,43.16
2019-01-16T06:28:39.797Z,43.13
2019-01-16T06:31:05.790Z,43.04
2019-01-16T06:33:31.771Z,43.01
2019-01-16T06:35:57.828Z,42.99
2019-01-16T06:38:23.871Z,42.96
2019-01-16T06:40:49.829Z,42.96
2019-01-16T06:43:15.873Z,42.97
2019-01-16T06:45:41.866Z,42.96
2019-01-16T06:48:07.876Z,42.88
2019-01-16T06:50:33.897Z,42.87
2019-01-16T06:53:00.076Z,42.76
2019-01-16T06:55:26.057Z,42.79
2019-01-16T06:57:52.092Z,42.80
2019-01-16T07:00:18.142Z,42.83
2019-01-16T07:02:44.142Z,42.74
2019-01-16T07:05:10.179Z,42.66
2019-01-16T07:07:36.195Z,42.58
2019-01-16T07:10:02.232Z,42.50
2019-01-16T07:12:28.266Z,42.47
2019-01-16T07:14:54.262Z,42.45
2019-01-16T07:17:20.256Z,42.52
2019-01-16T07:19:46.300Z,42.66
2019-01-16T07:22:12.294Z,42.68
2019-01-16T07:24:38.327Z,42.64
2019-01-16T07:27:04.331Z,42.67
2019-01-16T07:29:30.394Z,42.69
2019-01-16T07:31:56.415Z,42.70
2019-01-16T07:34:22.462Z,42.73
2019-01-16T07:36:48.469Z,42.83
2019-01-16T07:39:14.487Z,42.85
2019-01-16T07:41:40.547Z,42.97
2019-01-16T07:44:06.562Z,43.10
2019-01-16T07:46:32.562Z,43.17
2019-01-16T07:48:58.618Z,43.24
2019-01-16T07:51:24.609Z,43.18
2019-01-16T07:53:50.622Z,43.28
2019-01-16T07:56:16.663Z,43.38
2019-01-16T07:58:42.662Z,43.36
2019-01-16T08:01:08.661Z,43.46
2019-01-16T08:03:34.718Z,43.55
2019-01-16T08:06:01.654Z,43.62
2019-01-16T08:08:27.651Z,43.62
2019-01-16T08:10:53.734Z,43.65
2019-01-16T08:13:19.730Z,43.80
2019-01-16T08:15:45.723Z,43.80
2019-01-16T08:18:11.756Z,43.87
2019-01-16T08:20:37.783Z,43.81
2019-01-16T08:23:03.831Z,43.89
2019-01-16T08:25:29.831Z,43.91
2019-01-16T08:27:55.833Z,43.75
2019-01-16T08:30:21.819Z,43.65
2019-01-16T08:32:47.870Z,43.51
2019-01-16T08:35:13.863Z,43.55
2019-01-16T08:37:39.841Z,43.63
2019-01-16T08:40:05.922Z,44.56
2019-01-16T08:42:31.884Z,44.87
2019-01-16T08:44:57.872Z,44.82
2019-01-16T08:47:23.915Z,44.71
2019-01-16T08:49:49.889Z,45.80
2019-01-16T08:52:15.880Z,44.31
2019-01-16T08:54:41.905Z,44.34
2019-01-16T08:57:07.905Z,44.42
2019-01-16T08:59:33.891Z,44.24
2019-01-16T09:01:59.934Z,44.09
2019-01-16T09:04:25.929Z,43.95
2019-01-16T09:06:51.925Z,43.57
2019-01-16T09:09:18.012Z,43.20
2019-01-16T09:11:44.013Z,43.20
2019-01-16T09:14:10.015Z,43.10
2019-01-16T09:16:36.071Z,42.89
2019-01-16T09:19:02.051Z,42.92
2019-01-16T09:21:28.041Z,42.94
2019-01-16T09:23:54.198Z,43.04
2019-01-16T09:26:20.178Z,43.10
2019-01-16T09:28:46.182Z,43.12
2019-01-16T09:31:12.212Z,43.18
2019-01-16T09:33:38.198Z,43.13
2019-01-16T09:36:04.183Z,43.17
2019-01-16T09:38:30.234Z,43.24
2019-01-16T09:40:56.232Z,43.23
2019-01-16T09:43:22.215Z,43.29
2019-01-16T09:45:48.252Z,43.19
2019-01-16T09:48:14.264Z,43.27
2019-01-16T09:50:47.620Z,43.17
2019-01-16T09:53:06.345Z,43.19
2019-01-16T09:55:32.478Z,43.08
2019-01-16T09:57:58.468Z,42.99
2019-01-16T10:00:24.532Z,42.98
2019-01-16T10:02:50.528Z,42.87
2019-01-16T10:05:16.528Z,42.76
2019-01-16T10:07:42.593Z,42.85
2019-01-16T10:10:08.589Z,42.71
2019-01-16T10:12:34.576Z,42.83
2019-01-16T10:15:00.701Z,42.80
2019-01-16T10:17:26.658Z,42.71
2019-01-16T10:19:52.676Z,42.78
2019-01-16T10:22:18.706Z,42.76
2019-01-16T10:24:44.739Z,42.65
2019-01-16T10:27:10.706Z,42.72
2019-01-16T10:29:36.745Z,42.66
2019-01-16T10:32:02.744Z,42.69
2019-01-16T10:34:28.736Z,42.66
2019-01-16T10:36:54.797Z,42.67
2019-01-16T10:39:20.787Z,42.60
2019-01-16T10:41:46.776Z,42.56
2019-01-16T10:44:12.821Z,42.61
2019-01-16T10:46:38.864Z,42.64
2019-01-16T10:49:04.858Z,42.61
2019-01-16T10:51:30.883Z,42.65
2019-01-16T10:53:56.886Z,42.62
2019-01-16T10:56:22.883Z,42.61
2019-01-16T10:58:48.934Z,42.62
2019-01-16T11:01:14.932Z,42.65
2019-01-16T11:03:40.957Z,42.58
2019-01-16T11:06:06.988Z,42.57
2019-01-16T11:08:32.965Z,42.61
2019-01-16T11:10:58.953Z,42.60
2019-01-16T11:13:28.310Z,42.52
2019-01-16T11:15:54.193Z,42.65
2019-01-16T11:18:20.297Z,42.58
2019-01-16T11:20:46.336Z,42.55
2019-01-16T11:23:12.345Z,42.65
2019-01-16T11:25:38.348Z,42.63
2019-01-16T11:28:04.384Z,42.58
2019-01-16T11:30:30.372Z,42.58
2019-01-16T11:32:56.379Z,42.69
2019-01-16T11:35:22.453Z,42.59
2019-01-16T11:37:48.454Z,42.54
2019-01-16T11:40:14.457Z,42.58
2019-01-16T11:42:40.492Z,42.65
2019-01-16T11:45:06.481Z,42.65
2019-01-16T11:47:32.464Z,42.61
2019-01-16T11:49:58.498Z,42.58
2019-01-16T11:52:24.483Z,42.52
2019-01-16T11:54:50.474Z,42.40
2019-01-16T11:57:16.506Z,42.55
2019-01-16T11:59:42.505Z,42.57
2019-01-16T12:02:08.514Z,42.40
2019-01-16T12:04:34.561Z,42.53
2019-01-16T12:07:00.566Z,42.48
2019-01-16T12:09:26.556Z,42.52
2019-01-16T12:11:52.604Z,42.33
2019-01-16T12:14:18.590Z,42.42
2019-01-16T12:16:44.580Z,42.34
2019-01-16T12:19:10.620Z,42.44
2019-01-16T12:21:36.622Z,42.45
2019-01-16T12:24:02.631Z,42.51
2019-01-16T12:26:28.680Z,42.33
2019-01-16T12:28:54.667Z,42.38
2019-01-16T12:31:20.676Z,42.19
2019-01-16T12:33:46.727Z,42.12
2019-01-16T12:36:12.728Z,42.35
2019-01-16T12:38:39.577Z,42.19
2019-01-16T12:41:06.003Z,42.30
2019-01-16T12:43:32.069Z,42.34
2019-01-16T12:45:58.075Z,42.26
2019-01-16T12:48:24.117Z,42.02
2019-01-16T12:50:50.128Z,42.37
2019-01-16T12:53:16.154Z,42.29
2019-01-16T12:55:42.165Z,42.23
2019-01-16T12:58:13.349Z,42.24
2019-01-16T13:00:34.231Z,42.22
2019-01-16T13:03:00.427Z,42.20
2019-01-16T13:05:26.427Z,42.29
2019-01-16T13:07:52.693Z,42.28
2019-01-16T13:10:19.110Z,42.21
2019-01-16T13:12:47.819Z,42.29
2019-01-16T13:15:13.831Z,42.28
2019-01-16T13:17:40.012Z,42.15
2019-01-16T13:20:06.025Z,42.22
2019-01-16T13:22:32.038Z,42.14
2019-01-16T13:24:58.240Z,42.33
2019-01-16T13:27:24.414Z,42.29
2019-01-16T13:29:50.433Z,42.26
2019-01-16T13:32:16.492Z,42.34
2019-01-16T13:34:42.482Z,42.35
2019-01-16T13:37:08.484Z,42.42
2019-01-16T13:39:34.555Z,42.29
2019-01-16T13:42:02.469Z,42.53
2019-01-16T13:44:28.463Z,42.52
2019-01-16T13:46:54.513Z,42.48
2019-01-16T13:49:20.563Z,42.52
2019-01-16T13:51:46.556Z,42.64
2019-01-16T13:54:12.625Z,42.65
2019-01-16T13:56:38.660Z,42.55
2019-01-16T13:59:04.656Z,42.48
2019-01-16T14:01:30.722Z,42.55
2019-01-16T14:03:56.739Z,42.58
2019-01-16T14:06:22.747Z,42.66
2019-01-16T14:08:48.838Z,42.31
2019-01-16T14:11:14.810Z,42.60
2019-01-16T14:13:40.813Z,42.42
2019-01-16T14:16:09.352Z,42.59
2019-01-16T14:18:37.314Z,42.49
2019-01-16T14:21:01.369Z,42.52
2019-01-16T14:23:28.472Z,42.42
2019-01-16T14:25:54.471Z,42.57
2019-01-16T14:28:20.546Z,42.60
2019-01-16T14:30:46.601Z,42.30
2019-01-16T14:33:12.616Z,42.65
2019-01-16T14:35:38.616Z,42.37
2019-01-16T14:38:05.688Z,42.63
2019-01-16T14:40:31.686Z,42.69
2019-01-16T14:42:57.701Z,42.34
2019-01-16T14:45:23.767Z,42.56
2019-01-16T14:47:49.756Z,42.71
2019-01-16T14:50:15.773Z,42.67
2019-01-16T14:52:41.985Z,42.65
2019-01-16T14:55:07.984Z,42.07
2019-01-16T14:57:33.971Z,42.38
2019-01-16T15:00:00.025Z,42.44
2019-01-16T15:02:26.027Z,42.41
2019-01-16T15:04:52.032Z,42.14
2019-01-16T15:07:18.074Z,42.15
2019-01-16T15:09:44.080Z,42.09
2019-01-16T15:12:10.103Z,42.01
2019-01-16T15:14:36.176Z,42.07
2019-01-16T15:17:02.182Z,41.86
2019-01-16T15:19:28.163Z,41.96
2019-01-16T15:21:54.216Z,41.86
2019-01-16T15:24:20.232Z,41.77
2019-01-16T15:26:46.229Z,41.76
2019-01-16T15:29:12.287Z,41.79
2019-01-16T15:31:38.276Z,41.80
2019-01-16T15:34:04.299Z,41.69
2019-01-16T15:36:30.722Z,41.58
2019-01-16T15:38:56.740Z,41.64
2019-01-16T15:41:22.847Z,41.70
2019-01-16T15:43:49.625Z,41.72
2019-01-16T15:46:14.980Z,41.79
2019-01-16T15:48:41.028Z,41.79
2019-01-16T15:51:07.096Z,41.94
2019-01-16T15:53:33.110Z,42.06
2019-01-16T15:55:59.113Z,42.24
2019-01-16T15:58:25.161Z,42.31
2019-01-16T16:00:51.273Z,42.38
2019-01-16T16:03:17.387Z,42.45
2019-01-16T16:05:43.501Z,42.56
2019-01-16T16:08:09.687Z,42.66
2019-01-16T16:10:35.774Z,42.71
2019-01-16T16:13:01.812Z,42.80
2019-01-16T16:15:27.900Z,42.91
2019-01-16T16:17:54.068Z,42.84
2019-01-16T16:20:20.093Z,42.82
2019-01-16T16:22:46.102Z,42.84
2019-01-16T16:25:12.102Z,42.95
2019-01-16T16:27:38.467Z,43.22
2019-01-16T16:30:04.480Z,43.33
2019-01-16T16:32:30.519Z,43.34
2019-01-16T16:34:56.576Z,43.39
2019-01-16T16:37:22.579Z,43.44
2019-01-16T16:39:48.641Z,43.45
2019-01-16T16:42:14.644Z,43.49
2019-01-16T16:44:43.204Z,43.51
2019-01-16T16:47:09.326Z,43.43
2019-01-16T16:49:35.651Z,43.30
2019-01-16T16:52:01.675Z,43.24
2019-01-16T16:54:27.675Z,43.27
2019-01-16T16:56:53.769Z,43.25
2019-01-16T16:59:20.040Z,43.25
2019-01-16T17:01:46.116Z,43.24
2019-01-16T17:04:12.230Z,43.23
2019-01-16T17:06:38.217Z,43.28
2019-01-16T17:09:04.216Z,43.33
2019-01-16T17:11:30.259Z,43.32
2019-01-16T17:13:56.336Z,43.28
2019-01-16T17:16:22.414Z,43.27
2019-01-16T17:18:48.497Z,43.31
2019-01-16T17:21:14.677Z,43.34
2019-01-16T17:23:40.663Z,43.35
2019-01-16T17:26:06.706Z,43.32
2019-01-16T17:28:32.713Z,43.29
2019-01-16T17:30:58.715Z,43.25
2019-01-16T17:33:24.765Z,43.22
2019-01-16T17:35:50.773Z,43.31
2019-01-16T17:38:16.814Z,43.23
2019-01-16T17:40:42.852Z,43.23
2019-01-16T17:43:08.871Z,43.10
2019-01-16T17:45:34.891Z,43.09
2019-01-16T17:48:00.937Z,43.04
2019-01-16T17:50:26.941Z,42.99
2019-01-16T17:52:52.941Z,42.89
2019-01-16T17:55:19.011Z,42.90
2019-01-16T17:57:45.031Z,42.71
2019-01-16T18:00:11.046Z,42.73
2019-01-16T18:02:37.445Z,42.70
2019-01-16T18:05:03.742Z,42.73
2019-01-16T18:07:29.859Z,42.69
2019-01-16T18:09:56.019Z,42.77
2019-01-16T18:12:22.034Z,42.69
2019-01-16T18:14:48.073Z,42.78
2019-01-16T18:17:14.133Z,42.66
2019-01-16T18:19:40.152Z,42.69
2019-01-16T18:22:06.158Z,42.86
2019-01-16T18:24:32.209Z,42.93
2019-01-16T18:26:58.259Z,42.95
2019-01-16T18:29:24.325Z,43.02
2019-01-16T18:31:50.405Z,43.10
2019-01-16T18:34:16.389Z,43.08
2019-01-16T18:36:42.395Z,43.05
2019-01-16T18:39:08.439Z,43.03
2019-01-16T18:41:34.478Z,43.01
2019-01-16T18:44:00.488Z,43.04
2019-01-16T18:46:26.630Z,43.04
2019-01-16T18:48:52.556Z,43.12
2019-01-16T18:51:18.574Z,42.92
2019-01-16T18:53:44.629Z,42.97
2019-01-16T18:56:10.650Z,43.04
2019-01-16T18:58:36.665Z,43.00
2019-01-16T19:01:02.720Z,43.02
2019-01-16T19:03:29.051Z,43.09
2019-01-16T19:05:55.078Z,42.88
2019-01-16T19:08:21.133Z,42.85
2019-01-16T19:10:47.119Z,42.92
2019-01-16T19:13:13.109Z,42.85
2019-01-16T19:15:39.168Z,42.78
2019-01-16T19:18:05.202Z,42.76
2019-01-16T19:20:31.185Z,42.63
2019-01-16T19:22:58.206Z,42.68
2019-01-16T19:25:23.232Z,42.81
2019-01-16T19:27:49.240Z,42.75
2019-01-16T19:30:15.286Z,42.86
2019-01-16T19:32:41.292Z,42.90
2019-01-16T19:35:07.293Z,43.11
2019-01-16T19:37:33.345Z,43.24
2019-01-16T19:39:59.354Z,43.38
2019-01-16T19:42:25.341Z,43.44
2019-01-16T19:44:51.395Z,43.48
2019-01-16T19:47:17.451Z,43.58
2019-01-16T19:49:43.487Z,43.76
2019-01-16T19:52:09.634Z,43.91
2019-01-16T19:54:35.685Z,43.93
2019-01-16T19:57:01.700Z,43.99
2019-01-16T19:59:27.740Z,44.15
2019-01-16T20:01:53.742Z,44.08
2019-01-16T20:04:19.753Z,44.26
2019-01-16T20:06:45.794Z,44.20
2019-01-16T20:09:11.852Z,44.15
2019-01-16T20:11:37.925Z,44.09
2019-01-16T20:14:03.989Z,44.05
2019-01-16T20:16:29.987Z,44.04
2019-01-16T20:18:55.980Z,44.08
2019-01-16T20:21:22.014Z,44.09
2019-01-16T20:23:48.033Z,44.17
2019-01-16T20:26:14.034Z,44.36
2019-01-16T20:28:40.074Z,44.33
2019-01-16T20:31:06.088Z,44.36
2019-01-16T20:33:32.088Z,44.38
2019-01-16T20:35:58.145Z,44.40
2019-01-16T20:38:24.172Z,44.38
2019-01-16T20:40:50.369Z,44.36
2019-01-16T20:43:16.412Z,44.41
2019-01-16T20:45:42.427Z,44.47
2019-01-16T20:48:08.524Z,44.44
2019-01-16T20:50:34.893Z,44.19
2019-01-16T20:53:00.996Z,43.85
2019-01-16T20:55:26.953Z,43.89
2019-01-16T20:57:53.028Z,43.75
2019-01-16T21:00:19.018Z,43.66
2019-01-16T21:02:45.018Z,43.78
2019-01-16T21:05:11.069Z,45.14
2019-01-16T21:07:37.057Z,46.15
2019-01-16T21:10:03.054Z,46.19
2019-01-16T21:12:29.095Z,45.87
2019-01-16T21:14:55.106Z,45.93
2019-01-16T21:17:21.091Z,46.30
2019-01-16T21:19:47.134Z,46.06
2019-01-16T21:22:13.131Z,46.46
2019-01-16T21:24:39.166Z,45.72
2019-01-16T21:27:05.253Z,46.22
2019-01-16T21:29:31.198Z,45.75
2019-01-16T21:31:57.183Z,45.66
2019-01-16T21:34:23.230Z,45.66
2019-01-16T21:36:49.210Z,45.54
2019-01-16T21:39:15.205Z,45.94
2019-01-16T21:41:41.242Z,45.77
2019-01-16T21:44:07.245Z,45.61
2019-01-16T21:46:33.238Z,45.64
2019-01-16T21:48:59.279Z,45.94
2019-01-16T21:51:25.278Z,45.80
2019-01-16T21:53:51.277Z,45.50
2019-01-16T21:56:17.316Z,45.71
2019-01-16T21:58:43.388Z,45.70
2019-01-16T22:01:09.385Z,45.46
2019-01-16T22:03:35.433Z,45.50
2019-01-16T22:06:01.446Z,45.72
2019-01-16T22:08:27.426Z,45.32
2019-01-16T22:10:53.458Z,45.35
2019-01-16T22:13:19.445Z,45.28
2019-01-16T22:15:45.429Z,45.41
2019-01-16T22:18:11.484Z,45.27
2019-01-16T22:20:37.462Z,45.26
2019-01-16T22:23:03.462Z,45.25
2019-01-16T22:25:29.495Z,45.27
2019-01-16T22:27:55.485Z,45.23
2019-01-16T22:30:21.491Z,45.29
2019-01-16T22:32:47.527Z,45.26
2019-01-16T22:35:13.521Z,45.30
2019-01-16T22:37:39.517Z,45.27
2019-01-16T22:40:05.557Z,45.28
2019-01-16T22:42:31.557Z,45.49
2019-01-16T22:44:57.546Z,45.65
2019-01-16T22:47:23.591Z,45.50
2019-01-16T22:49:49.580Z,45.60
2019-01-16T22:52:15.586Z,45.63
2019-01-16T22:54:41.631Z,45.54
2019-01-16T22:57:07.636Z,45.39
2019-01-16T22:59:33.630Z,45.43
2019-01-16T23:01:59.654Z,45.45
2019-01-16T23:04:25.658Z,45.49
2019-01-16T23:06:51.656Z,45.62
2019-01-16T23:09:17.673Z,45.67
2019-01-16T23:11:43.710Z,45.49
2019-01-16T23:14:09.737Z,45.54
2019-01-16T23:16:35.743Z,45.57
2019-01-16T23:19:01.770Z,45.46
2019-01-16T23:21:27.762Z,45.44
2019-01-16T23:23:53.753Z,45.46
2019-01-16T23:26:19.786Z,45.30
2019-01-16T23:28:45.784Z,45.23
2019-01-16T23:31:11.785Z,45.18
2019-01-16T23:33:37.820Z,45.15
2019-01-16T23:36:03.820Z,45.10
2019-01-16T23:38:29.818Z,45.06
2019-01-16T23:40:56.062Z,45.03
2019-01-16T23:43:22.074Z,45.01
2019-01-16T23:45:48.053Z,44.98
2019-01-16T23:48:14.084Z,44.97
2019-01-16T23:50:40.070Z,44.92
2019-01-16T23:53:06.528Z,44.89
2019-01-16T23:55:33.172Z,44.87
2019-01-16T23:57:59.176Z,44.84
